createdAt,value
2018-06-09T00:02:08.408Z,69.40
2018-06-09T00:04:36.648Z,69.20
2018-06-09T00:07:04.900Z,69.30
2018-06-09T00:09:33.218Z,69.40
2018-06-09T00:12:01.533Z,69.40
2018-06-09T00:14:29.808Z,69.40
2018-06-09T00:16:58.082Z,69.50
2018-06-09T00:19:26.371Z,69.80
2018-06-09T00:21:54.627Z,70.00
2018-06-09T00:24:22.896Z,70.50
2018-06-09T00:26:51.197Z,71.00
2018-06-09T00:29:19.481Z,71.00
2018-06-09T00:31:47.720Z,71.10
2018-06-09T00:34:15.983Z,71.20
2018-06-09T00:36:44.242Z,71.20
2018-06-09T00:39:12.548Z,71.20
2018-06-09T00:41:40.827Z,71.20
2018-06-09T00:44:09.075Z,71.10
2018-06-09T00:46:37.348Z,70.90
2018-06-09T00:49:05.600Z,70.90
2018-06-09T00:51:33.889Z,71.20
2018-06-09T00:54:02.152Z,71.30
2018-06-09T00:56:42.778Z,71.10
2018-06-09T00:59:11.068Z,71.10
2018-06-09T01:01:39.362Z,70.70
2018-06-09T01:04:08.445Z,70.50
2018-06-09T01:06:36.684Z,70.50
2018-06-09T01:09:07.336Z,70.50
2018-06-09T01:11:35.737Z,70.60
2018-06-09T01:14:03.984Z,70.70
2018-06-09T01:16:32.272Z,70.50
2018-06-09T01:19:00.597Z,70.70
2018-06-09T01:21:28.884Z,70.70
2018-06-09T01:23:57.143Z,70.90
2018-06-09T01:26:25.399Z,71.00
2018-06-09T01:28:53.657Z,71.20
2018-06-09T01:31:21.938Z,71.20
2018-06-09T01:33:50.204Z,71.30
2018-06-09T01:36:18.453Z,71.30
2018-06-09T01:38:46.784Z,71.30
2018-06-09T01:41:15.105Z,71.20
2018-06-09T01:43:43.359Z,71.30
2018-06-09T01:46:11.631Z,71.50
2018-06-09T01:48:39.869Z,71.70
2018-06-09T01:51:08.093Z,71.80
2018-06-09T01:53:36.354Z,71.90
2018-06-09T01:58:32.629Z,72.20
2018-06-09T02:01:01.051Z,72.40
2018-06-09T02:03:29.319Z,72.40
2018-06-09T02:05:57.592Z,72.60
2018-06-09T02:08:25.856Z,72.70
2018-06-09T02:10:54.150Z,72.80
2018-06-09T02:13:22.436Z,72.80
2018-06-09T02:15:50.698Z,72.90
2018-06-09T02:18:18.979Z,72.80
2018-06-09T02:20:47.243Z,72.80
2018-06-09T02:23:15.537Z,72.90
2018-06-09T02:25:43.799Z,73.00
2018-06-09T02:28:12.057Z,72.90
2018-06-09T02:30:40.409Z,72.80
2018-06-09T02:33:08.644Z,72.80
2018-06-09T02:35:36.899Z,72.60
2018-06-09T02:38:05.231Z,72.70
2018-06-09T02:40:33.504Z,72.60
2018-06-09T02:43:01.768Z,72.80
2018-06-09T02:45:30.074Z,72.70
2018-06-09T02:47:58.329Z,72.80
2018-06-09T02:50:26.564Z,72.80
2018-06-09T02:52:54.841Z,72.90
2018-06-09T02:55:23.129Z,73.00
2018-06-09T02:57:51.365Z,73.20
2018-06-09T03:00:19.786Z,73.40
2018-06-09T03:02:48.028Z,73.50
2018-06-09T03:05:16.292Z,73.50
2018-06-09T03:07:44.564Z,73.50
2018-06-09T03:10:12.792Z,73.60
2018-06-09T03:12:41.099Z,73.80
2018-06-09T03:15:09.388Z,74.20
2018-06-09T03:17:37.624Z,74.10
2018-06-09T03:20:05.889Z,73.90
2018-06-09T03:22:34.184Z,73.90
2018-06-09T03:25:02.424Z,73.70
2018-06-09T03:27:30.719Z,73.70
2018-06-09T03:29:59.024Z,73.90
2018-06-09T03:32:27.319Z,73.90
2018-06-09T03:34:55.567Z,73.90
2018-06-09T03:37:23.839Z,74.00
2018-06-09T03:39:52.089Z,74.10
2018-06-09T03:42:20.320Z,74.40
2018-06-09T03:47:16.637Z,74.80
2018-06-09T03:49:44.940Z,74.80
2018-06-09T03:54:41.216Z,74.70
2018-06-09T03:57:09.469Z,74.50
2018-06-09T03:59:37.787Z,74.40
2018-06-09T04:02:06.297Z,74.50
2018-06-09T04:04:34.572Z,74.50
2018-06-09T04:07:02.849Z,74.40
2018-06-09T04:09:31.146Z,74.40
2018-06-09T04:11:59.435Z,74.40
2018-06-09T04:14:27.717Z,74.20
2018-06-09T04:19:23.968Z,73.80
2018-06-09T04:21:52.228Z,73.60
2018-06-09T04:24:20.539Z,73.80
2018-06-09T04:26:49.917Z,73.90
2018-06-09T04:29:18.327Z,74.10
2018-06-09T04:31:46.599Z,74.20
2018-06-09T04:34:14.892Z,74.10
2018-06-09T04:36:43.188Z,74.00
2018-06-09T04:39:11.465Z,73.90
2018-06-09T04:41:39.758Z,73.70
2018-06-09T04:44:08.013Z,73.90
2018-06-09T04:46:36.288Z,74.00
2018-06-09T04:49:04.550Z,74.00
2018-06-09T04:51:32.839Z,73.80
2018-06-09T04:54:01.137Z,73.70
2018-06-09T04:56:29.381Z,73.70
2018-06-09T04:58:57.671Z,73.60
2018-06-09T05:01:25.940Z,73.50
2018-06-09T05:03:54.216Z,73.60
2018-06-09T05:06:22.495Z,73.60
2018-06-09T05:08:50.787Z,73.70
2018-06-09T05:11:19.060Z,73.80
2018-06-09T05:13:47.325Z,73.90
2018-06-09T05:16:15.583Z,73.70
2018-06-09T05:18:43.839Z,73.40
2018-06-09T05:21:12.099Z,73.50
2018-06-09T05:23:40.415Z,73.50
2018-06-09T05:26:08.685Z,73.20
2018-06-09T05:28:36.944Z,73.30
2018-06-09T05:31:05.239Z,73.40
2018-06-09T05:33:33.540Z,73.80
2018-06-09T05:36:01.780Z,73.80
2018-06-09T05:38:30.045Z,73.60
2018-06-09T05:40:58.319Z,73.40
2018-06-09T05:43:26.551Z,73.70
2018-06-09T05:45:54.849Z,73.80
2018-06-09T05:48:23.103Z,73.70
2018-06-09T05:50:51.481Z,73.60
2018-06-09T05:53:19.749Z,73.80
2018-06-09T05:55:47.997Z,73.90
2018-06-09T05:58:16.278Z,73.80
2018-06-09T06:00:44.552Z,73.70
2018-06-09T06:03:12.879Z,73.50
2018-06-09T06:05:41.152Z,73.20
2018-06-09T06:08:09.417Z,73.20
2018-06-09T06:10:37.715Z,73.30
2018-06-09T06:13:05.975Z,73.00
2018-06-09T06:15:34.258Z,72.90
2018-06-09T06:18:02.508Z,72.80
2018-06-09T06:20:30.839Z,72.50
2018-06-09T06:22:59.094Z,72.10
2018-06-09T06:25:27.375Z,71.90
2018-06-09T06:27:55.635Z,72.00
2018-06-09T06:30:23.879Z,71.70
2018-06-09T06:32:52.133Z,71.10
2018-06-09T06:35:20.383Z,71.10
2018-06-09T06:40:16.674Z,71.10
2018-06-09T06:45:13.343Z,70.00
2018-06-09T06:47:41.653Z,69.80
2018-06-09T06:50:09.995Z,69.50
2018-06-09T06:52:38.308Z,69.50
2018-06-09T06:55:06.608Z,69.50
2018-06-09T06:57:34.894Z,69.60
2018-06-09T07:00:03.192Z,68.80
2018-06-09T07:02:31.539Z,68.40
2018-06-09T07:04:59.912Z,67.30
2018-06-09T07:07:28.241Z,67.50
2018-06-09T07:09:57.361Z,67.20
2018-06-09T07:12:26.700Z,67.20
2018-06-09T07:14:55.379Z,66.70
2018-06-09T07:17:24.679Z,66.70
2018-06-09T07:19:55.493Z,66.50
2018-06-09T07:22:24.271Z,66.00
2018-06-09T07:24:53.702Z,65.80
2018-06-09T07:27:22.144Z,65.20
2018-06-09T07:29:50.556Z,65.70
2018-06-09T07:32:18.799Z,65.90
2018-06-09T07:34:47.116Z,65.20
2018-06-09T07:39:43.505Z,64.70
2018-06-09T07:42:11.772Z,65.00
2018-06-09T07:44:39.988Z,64.90
2018-06-09T07:49:36.267Z,64.40
2018-06-09T07:52:04.523Z,64.20
2018-06-09T07:54:32.784Z,64.00
2018-06-09T07:57:01.128Z,63.10
2018-06-09T07:59:29.384Z,62.90
2018-06-09T08:01:57.674Z,62.20
2018-06-09T08:04:25.920Z,62.50
2018-06-09T08:06:54.213Z,62.60
2018-06-09T08:09:22.495Z,62.50
2018-06-09T08:11:50.722Z,62.30
2018-06-09T08:14:18.970Z,61.80
2018-06-09T08:16:47.208Z,61.10
2018-06-09T08:21:43.513Z,60.30
2018-06-09T08:24:11.792Z,61.10
2018-06-09T08:29:08.022Z,59.70
2018-06-09T08:31:36.269Z,60.10
2018-06-09T08:34:04.535Z,59.40
2018-06-09T08:39:00.831Z,58.90
2018-06-09T08:41:29.203Z,59.80
2018-06-09T08:43:57.467Z,59.10
2018-06-09T08:46:25.725Z,58.60
2018-06-09T08:48:54.079Z,58.80
2018-06-09T08:51:22.370Z,58.30
2018-06-09T08:53:50.640Z,57.90
2018-06-09T08:56:18.887Z,57.70
2018-06-09T08:58:47.188Z,57.50
2018-06-09T09:01:15.493Z,57.90
2018-06-09T09:03:43.855Z,57.20
2018-06-09T09:06:12.083Z,57.40
2018-06-09T09:08:40.399Z,57.30
2018-06-09T09:11:08.848Z,57.30
2018-06-09T09:13:37.172Z,57.50
2018-06-09T09:16:05.550Z,57.20
2018-06-09T09:18:33.872Z,57.10
2018-06-09T09:21:02.137Z,57.40
2018-06-09T09:23:30.473Z,57.00
2018-06-09T09:28:26.708Z,57.00
2018-06-09T09:30:54.941Z,57.20
2018-06-09T09:33:23.232Z,57.30
2018-06-09T09:35:51.543Z,57.00
2018-06-09T09:38:19.780Z,56.20
2018-06-09T09:40:48.178Z,55.90
2018-06-09T09:43:16.443Z,56.20
2018-06-09T09:45:44.848Z,56.30
2018-06-09T09:48:13.089Z,55.70
2018-06-09T09:50:41.351Z,55.50
2018-06-09T09:53:09.649Z,56.40
2018-06-09T09:55:37.942Z,56.00
2018-06-09T09:58:06.208Z,55.90
2018-06-09T10:00:38.233Z,55.80
2018-06-09T10:03:06.544Z,55.50
2018-06-09T10:05:34.925Z,55.30
2018-06-09T10:08:03.424Z,55.10
2018-06-09T10:10:32.138Z,55.60
2018-06-09T10:13:00.405Z,55.30
2018-06-09T10:15:28.654Z,54.90
2018-06-09T10:17:56.907Z,54.80
2018-06-09T10:20:25.137Z,55.10
2018-06-09T10:22:53.467Z,55.30
2018-06-09T10:25:21.678Z,54.80
2018-06-09T10:30:17.958Z,54.90
2018-06-09T10:32:46.235Z,54.90
2018-06-09T10:35:14.495Z,54.70
2018-06-09T10:37:42.791Z,55.00
2018-06-09T10:40:11.083Z,55.00
2018-06-09T10:42:39.401Z,55.40
2018-06-09T10:45:08.330Z,54.90
2018-06-09T10:47:36.603Z,54.80
2018-06-09T10:52:33.532Z,55.60
2018-06-09T10:55:01.820Z,55.80
2018-06-09T10:57:30.157Z,55.40
2018-06-09T10:59:58.395Z,55.30
2018-06-09T11:02:26.656Z,55.00
2018-06-09T11:04:55.117Z,54.90
2018-06-09T11:07:23.355Z,55.20
2018-06-09T11:09:51.671Z,55.40
2018-06-09T11:12:19.966Z,55.40
2018-06-09T11:14:48.221Z,55.90
2018-06-09T11:17:16.487Z,56.00
2018-06-09T11:19:44.786Z,55.30
2018-06-09T11:22:13.072Z,55.30
2018-06-09T11:24:41.405Z,54.60
2018-06-09T11:27:09.740Z,55.00
2018-06-09T11:29:37.994Z,54.20
2018-06-09T11:32:06.325Z,54.30
2018-06-09T11:37:02.693Z,54.30
2018-06-09T11:39:31.072Z,53.50
2018-06-09T11:41:59.335Z,52.90
2018-06-09T11:44:27.857Z,53.20
2018-06-09T11:46:56.183Z,53.40
2018-06-09T11:51:52.499Z,53.00
2018-06-09T11:54:20.765Z,52.90
2018-06-09T11:56:49.037Z,52.50
2018-06-09T11:59:17.359Z,51.20
2018-06-09T12:01:45.689Z,50.60
2018-06-09T12:04:13.933Z,50.50
2018-06-09T12:06:42.220Z,50.70
2018-06-09T12:09:10.790Z,50.40
2018-06-09T12:11:39.064Z,50.30
2018-06-09T12:14:07.367Z,49.20
2018-06-09T12:16:35.656Z,49.20
2018-06-09T12:19:03.971Z,48.30
2018-06-09T12:21:32.209Z,47.40
2018-06-09T12:24:00.887Z,47.10
2018-06-09T12:26:29.173Z,47.10
2018-06-09T12:28:57.453Z,47.70
2018-06-09T12:31:25.717Z,46.70
2018-06-09T12:33:53.975Z,46.90
2018-06-09T12:36:22.344Z,47.60
2018-06-09T12:43:47.561Z,47.80
2018-06-09T12:46:16.458Z,47.70
2018-06-09T12:51:13.622Z,48.00
2018-06-09T12:53:43.153Z,47.80
2018-06-09T12:56:11.846Z,47.50
2018-06-09T12:58:40.618Z,47.40
2018-06-09T13:01:09.156Z,47.50
2018-06-09T13:03:38.504Z,47.30
2018-06-09T13:06:07.023Z,46.50
2018-06-09T13:08:35.462Z,46.60
2018-06-09T13:11:03.933Z,47.30
2018-06-09T13:13:32.599Z,47.60
2018-06-09T13:16:01.424Z,47.30
2018-06-09T13:18:30.209Z,47.50
2018-06-09T13:20:58.520Z,46.20
2018-06-09T13:23:26.774Z,46.00
2018-06-09T13:25:55.040Z,46.40
2018-06-09T13:28:23.375Z,45.80
2018-06-09T13:33:19.720Z,44.10
2018-06-09T13:35:47.971Z,43.70
2018-06-09T13:38:16.257Z,44.30
2018-06-09T13:40:44.715Z,44.00
2018-06-09T13:43:12.964Z,44.10
2018-06-09T13:45:41.249Z,43.80
2018-06-09T13:48:09.517Z,43.00
2018-06-09T13:50:37.811Z,41.90
2018-06-09T13:53:06.071Z,39.90
2018-06-09T13:55:34.317Z,37.80
2018-06-09T13:58:02.567Z,36.10
2018-06-09T14:00:30.859Z,35.60
2018-06-09T14:02:59.119Z,35.70
2018-06-09T14:05:27.405Z,33.70
2018-06-09T14:07:55.638Z,31.80
2018-06-09T14:10:23.922Z,31.20
2018-06-09T14:12:52.184Z,30.00
2018-06-09T14:15:20.496Z,29.10
2018-06-09T14:17:48.821Z,28.80
2018-06-09T14:20:17.039Z,27.70
2018-06-09T14:22:45.313Z,27.10
2018-06-09T14:25:13.725Z,26.30
2018-06-09T14:27:42.044Z,26.00
2018-06-09T14:30:10.540Z,25.60
2018-06-09T14:32:38.831Z,25.00
2018-06-09T14:35:07.034Z,24.40
2018-06-09T14:37:35.309Z,24.30
2018-06-09T14:40:03.611Z,23.40
2018-06-09T14:42:31.872Z,23.80
2018-06-09T14:45:00.125Z,23.50
2018-06-09T14:47:28.356Z,23.30
2018-06-09T14:49:56.603Z,24.10
2018-06-09T14:52:24.935Z,24.20
2018-06-09T14:54:53.188Z,24.10
2018-06-09T14:57:21.452Z,23.80
2018-06-09T14:59:49.840Z,24.00
2018-06-09T15:02:18.138Z,24.10
2018-06-09T15:04:46.427Z,23.70
2018-06-09T15:07:14.676Z,23.10
2018-06-09T15:09:54.440Z,22.10
2018-06-09T15:12:22.844Z,22.70
2018-06-09T15:14:51.101Z,22.80
2018-06-09T15:17:19.360Z,22.30
2018-06-09T15:19:47.589Z,22.20
2018-06-09T15:24:43.875Z,23.20
2018-06-09T15:27:12.162Z,23.00
2018-06-09T15:29:41.299Z,23.10
2018-06-09T15:32:09.564Z,22.50
2018-06-09T15:34:37.952Z,22.20
2018-06-09T15:37:06.509Z,22.50
2018-06-09T15:39:34.825Z,22.30
2018-06-09T15:42:03.133Z,22.70
2018-06-09T15:44:31.375Z,22.30
2018-06-09T15:46:59.652Z,22.00
2018-06-09T15:49:27.932Z,22.40
2018-06-09T15:51:56.230Z,22.40
2018-06-09T15:54:24.561Z,23.40
2018-06-09T15:56:52.844Z,24.20
2018-06-09T15:59:21.315Z,24.70
2018-06-09T16:01:49.576Z,25.30
2018-06-09T16:04:17.813Z,26.30
2018-06-09T16:06:46.090Z,26.90
2018-06-09T16:09:14.417Z,27.40
2018-06-09T16:11:42.611Z,28.20
2018-06-09T16:14:10.844Z,29.00
2018-06-09T16:16:39.107Z,29.60
2018-06-09T16:19:07.403Z,29.90
2018-06-09T16:21:35.663Z,30.50
2018-06-09T16:24:04.539Z,30.90
2018-06-09T16:29:00.801Z,31.90
2018-06-09T16:31:29.081Z,32.00
2018-06-09T16:33:57.323Z,32.20
2018-06-09T16:36:25.595Z,32.80
2018-06-09T16:38:53.871Z,32.70
2018-06-09T16:41:22.140Z,33.20
2018-06-09T16:43:50.399Z,33.10
2018-06-09T16:46:18.692Z,33.20
2018-06-09T16:48:46.984Z,33.40
2018-06-09T16:51:15.240Z,33.80
2018-06-09T16:53:43.491Z,33.90
2018-06-09T16:58:39.776Z,35.50
2018-06-09T17:01:08.121Z,34.90
2018-06-09T17:06:11.153Z,34.90
2018-06-09T17:08:39.433Z,35.20
2018-06-09T17:11:07.688Z,35.20
2018-06-09T17:13:35.949Z,35.40
2018-06-09T17:16:04.406Z,35.50
2018-06-09T17:18:32.685Z,35.60
2018-06-09T17:21:01.001Z,35.80
2018-06-09T17:23:29.229Z,35.80
2018-06-09T17:25:57.509Z,35.00
2018-06-09T17:28:25.754Z,34.00
2018-06-09T17:30:53.990Z,33.50
2018-06-09T17:33:22.255Z,33.50
2018-06-09T17:35:50.498Z,34.10
2018-06-09T17:38:18.770Z,34.60
2018-06-09T17:40:47.047Z,35.00
2018-06-09T17:43:15.306Z,35.10
2018-06-09T17:45:43.615Z,35.10
2018-06-09T17:50:40.153Z,35.00
2018-06-09T17:53:08.360Z,34.10
2018-06-09T17:55:36.596Z,33.30
2018-06-09T17:58:04.859Z,32.80
2018-06-09T18:00:33.117Z,32.20
2018-06-09T18:03:01.404Z,32.10
2018-06-09T18:05:29.650Z,32.20
2018-06-09T18:07:57.939Z,32.60
2018-06-09T18:10:26.212Z,33.10
2018-06-09T18:12:54.479Z,33.80
2018-06-09T18:17:50.716Z,35.70
2018-06-09T18:20:19.017Z,37.10
2018-06-09T18:22:47.267Z,38.90
2018-06-09T18:25:15.516Z,39.20
2018-06-09T18:27:43.755Z,40.20
2018-06-09T18:30:12.009Z,41.50
2018-06-09T18:35:08.284Z,41.90
2018-06-09T18:37:36.588Z,42.30
2018-06-09T18:40:04.967Z,42.90
2018-06-09T18:42:33.265Z,43.10
2018-06-09T18:45:01.500Z,43.50
2018-06-09T18:47:29.789Z,43.90
2018-06-09T18:49:58.141Z,44.40
2018-06-09T18:52:26.468Z,44.80
2018-06-09T18:54:54.745Z,45.00
2018-06-09T18:57:23.020Z,45.30
2018-06-09T18:59:51.252Z,45.70
2018-06-09T19:02:19.527Z,45.90
2018-06-09T19:04:47.809Z,46.10
2018-06-09T19:07:16.105Z,46.40
2018-06-09T19:09:44.389Z,46.60
2018-06-09T19:12:12.667Z,47.00
2018-06-09T19:14:40.957Z,47.30
2018-06-09T19:17:09.207Z,47.60
2018-06-09T19:19:37.431Z,47.90
2018-06-09T19:22:05.838Z,48.00
2018-06-09T19:24:34.017Z,48.20
2018-06-09T19:27:02.288Z,48.50
2018-06-09T19:29:30.560Z,48.60
2018-06-09T19:31:58.884Z,48.90
2018-06-09T19:34:27.116Z,49.10
2018-06-09T19:36:55.333Z,49.40
2018-06-09T19:39:25.079Z,49.70
2018-06-09T19:41:53.323Z,49.80
2018-06-09T19:44:21.585Z,50.10
2018-06-09T19:49:18.016Z,50.60
2018-06-09T19:51:47.006Z,50.80
2018-06-09T19:54:15.548Z,51.10
2018-06-09T19:56:43.903Z,51.30
2018-06-09T19:59:12.415Z,51.50
2018-06-09T20:01:40.921Z,51.80
2018-06-09T20:04:09.342Z,52.00
2018-06-09T20:06:38.905Z,52.50
2018-06-09T20:09:08.302Z,52.20
2018-06-09T20:11:36.754Z,52.40
2018-06-09T20:14:05.304Z,52.70
2018-06-09T20:16:33.805Z,52.90
2018-06-09T20:19:02.425Z,52.80
2018-06-09T20:21:30.768Z,53.00
2018-06-09T20:23:59.407Z,53.40
2018-06-09T20:26:27.898Z,53.40
2018-06-09T20:31:24.334Z,53.90
2018-06-09T20:33:52.890Z,54.10
2018-06-09T20:36:21.371Z,54.30
2018-06-09T20:38:49.635Z,54.50
2018-06-09T20:41:18.403Z,54.70
2018-06-09T20:43:47.015Z,55.10
2018-06-09T20:46:15.890Z,55.40
2018-06-09T20:48:44.657Z,55.50
2018-06-09T20:53:42.071Z,55.80
2018-06-09T20:56:10.388Z,56.00
2018-06-09T20:58:39.234Z,56.10
2018-06-09T21:01:08.718Z,56.30
2018-06-09T21:03:37.463Z,56.50
2018-06-09T21:06:06.345Z,57.30
2018-06-09T21:08:34.980Z,57.00
2018-06-09T21:11:03.734Z,57.00
2018-06-09T21:13:32.570Z,57.20
2018-06-09T21:16:01.508Z,57.30
2018-06-09T21:18:30.354Z,57.40
2018-06-09T21:20:59.099Z,57.60
2018-06-09T21:23:27.979Z,57.70
2018-06-09T21:25:56.535Z,57.80
2018-06-09T21:28:24.770Z,57.90
2018-06-09T21:30:58.773Z,57.90
2018-06-09T21:33:43.931Z,58.00
2018-06-09T21:36:14.859Z,58.10
2018-06-09T21:39:46.870Z,58.20
2018-06-09T21:44:53.313Z,58.30
2018-06-09T21:47:22.413Z,58.50
2018-06-09T21:49:51.384Z,58.70
2018-06-09T21:52:20.530Z,58.80
2018-06-09T21:54:49.594Z,58.90
2018-06-09T21:57:17.844Z,59.00
2018-06-09T21:59:46.093Z,59.10
2018-06-09T22:02:14.344Z,59.10
2018-06-09T22:04:42.678Z,59.20
2018-06-09T22:07:10.909Z,59.20
2018-06-09T22:09:39.140Z,59.20
2018-06-09T22:12:07.412Z,59.10
2018-06-09T22:14:35.669Z,59.20
2018-06-09T22:17:04.312Z,59.20
2018-06-09T22:19:32.719Z,59.20
2018-06-09T22:22:01.035Z,59.20
2018-06-09T22:24:29.284Z,59.40
2018-06-09T22:26:57.512Z,59.40
2018-06-09T22:29:25.776Z,59.40
2018-06-09T22:31:54.020Z,59.50
2018-06-09T22:34:22.277Z,59.40
2018-06-09T22:39:18.530Z,59.30
2018-06-09T22:41:46.789Z,59.30
2018-06-09T22:44:15.057Z,59.30
2018-06-09T22:46:43.306Z,59.20
2018-06-09T22:49:11.647Z,59.10
2018-06-09T22:51:39.921Z,59.10
2018-06-09T22:54:08.144Z,59.00
2018-06-09T22:56:36.419Z,59.10
2018-06-09T22:59:04.667Z,59.00
2018-06-09T23:04:00.877Z,59.10
2018-06-09T23:06:29.146Z,59.00
2018-06-09T23:08:57.401Z,59.10
2018-06-09T23:11:25.683Z,59.00
2018-06-09T23:13:53.968Z,59.10
2018-06-09T23:16:22.207Z,59.10
2018-06-09T23:18:50.551Z,59.00
2018-06-09T23:21:18.816Z,59.00
2018-06-09T23:23:47.083Z,59.00
2018-06-09T23:26:15.360Z,59.10
2018-06-09T23:28:43.606Z,59.20
2018-06-09T23:31:11.871Z,59.40
2018-06-09T23:36:08.432Z,59.20
2018-06-09T23:38:36.676Z,59.30
2018-06-09T23:41:05.076Z,59.40
2018-06-09T23:43:33.324Z,59.50
2018-06-09T23:46:01.585Z,59.60
2018-06-09T23:48:29.820Z,59.60
2018-06-09T23:50:58.034Z,59.50
2018-06-09T23:55:54.308Z,60.00
2018-06-09T23:58:22.540Z,60.00
